Time;durP1;ratioP1;P1;durP2;ratioP2;P2;SDS_P1;SDS_P2;PMS_P1;PMS_P2;Temp;Humidity;BMP_temperature;BMP_pressure;BME280_temperature;BME280_humidity;BME280_pressure;Samples;Min_cycle;Max_cycle;Signal;HPM_P1;HPM_P2
2023/07/28 00:00:46;;;;;;;2.40;1.00;;;19.00;99.90;;;;;;5104062;27;45140;-62
2023/07/28 00:03:12;;;;;;;2.75;0.98;;;19.00;99.90;;;;;;5105299;27;46206;-62
2023/07/28 00:05:39;;;;;;;2.10;0.98;;;19.00;99.90;;;;;;5112159;27;45221;-63
2023/07/28 00:08:06;;;;;;;1.42;0.85;;;19.00;99.90;;;;;;5106643;27;45164;-62
2023/07/28 00:10:33;;;;;;;2.15;0.80;;;18.90;99.90;;;;;;5106393;27;45604;-62
2023/07/28 00:13:02;;;;;;;2.15;1.17;;;18.90;99.90;;;;;;5104517;27;46639;-62
2023/07/28 00:15:29;;;;;;;2.85;1.00;;;18.90;99.90;;;;;;5105865;27;45126;-62
2023/07/28 00:17:57;;;;;;;2.97;0.73;;;19.00;99.90;;;;;;5110108;27;45171;-62
2023/07/28 00:20:24;;;;;;;3.47;1.13;;;19.00;99.90;;;;;;5104375;27;45265;-62
2023/07/28 00:22:51;;;;;;;2.85;0.80;;;18.90;99.90;;;;;;5104194;27;45227;-63
2023/07/28 00:25:17;;;;;;;2.45;1.00;;;19.00;99.90;;;;;;5103555;27;45149;-61
2023/07/28 00:27:44;;;;;;;2.35;0.77;;;19.00;99.90;;;;;;5105844;27;45133;-63
2023/07/28 00:30:13;;;;;;;4.53;0.90;;;18.90;99.90;;;;;;5103796;27;45429;-63
2023/07/28 00:32:39;;;;;;;1.48;0.80;;;19.00;99.90;;;;;;5104528;27;45366;-63
2023/07/28 00:35:08;;;;;;;1.13;0.75;;;18.90;99.90;;;;;;5104379;27;45164;-62
2023/07/28 00:37:35;;;;;;;0.70;0.70;;;19.00;99.90;;;;;;5104209;27;45066;-62
2023/07/28 00:40:02;;;;;;;2.20;0.80;;;19.00;99.90;;;;;;5104759;27;45350;-62
2023/07/28 00:42:29;;;;;;;1.48;0.73;;;19.00;99.90;;;;;;5104814;27;48243;-62
2023/07/28 00:44:56;;;;;;;2.00;0.93;;;19.00;99.90;;;;;;5103723;27;45235;-61
2023/07/28 00:47:22;;;;;;;0.88;0.75;;;19.00;99.90;;;;;;5104196;27;45244;-62
2023/07/28 00:49:49;;;;;;;3.28;1.00;;;19.00;99.90;;;;;;5104029;27;45112;-62
2023/07/28 00:52:17;;;;;;;1.00;0.90;;;19.00;99.90;;;;;;5111479;27;45357;-62
2023/07/28 00:54:44;;;;;;;2.70;0.98;;;18.90;99.90;;;;;;5104361;27;45422;-62
2023/07/28 00:57:12;;;;;;;1.20;0.88;;;18.90;99.90;;;;;;5104683;27;45282;-62
2023/07/28 00:59:38;;;;;;;2.65;0.90;;;18.90;99.90;;;;;;5103946;27;45217;-62
2023/07/28 01:02:06;;;;;;;1.30;0.80;;;18.90;99.90;;;;;;5102829;27;45290;-62
2023/07/28 01:04:32;;;;;;;1.88;0.85;;;18.90;99.90;;;;;;5104191;27;45276;-62
2023/07/28 01:07:06;;;;;;;2.30;1.00;;;18.90;99.90;;;;;;5114492;27;45134;-63
2023/07/28 01:09:43;;;;;;;4.97;0.90;;;18.90;99.90;;;;;;5104369;27;45264;-62
2023/07/28 01:12:10;;;;;;;1.33;0.90;;;18.90;99.90;;;;;;5103965;27;45222;-62
2023/07/28 01:14:36;;;;;;;3.65;1.08;;;18.90;99.90;;;;;;5103757;27;45279;-63
2023/07/28 01:17:04;;;;;;;2.33;1.05;;;18.90;99.90;;;;;;5104827;27;45292;-62
2023/07/28 01:19:31;;;;;;;2.65;1.25;;;18.90;99.90;;;;;;5104434;27;45167;-62
2023/07/28 01:22:14;;;;;;;1.77;0.90;;;18.90;99.90;;;;;;5102128;27;47303;-62
2023/07/28 01:24:50;;;;;;;3.95;1.25;;;18.90;99.90;;;;;;5103912;27;45287;-62
2023/07/28 01:27:19;;;;;;;1.05;0.95;;;18.90;99.90;;;;;;5102941;27;45189;-62
2023/07/28 01:29:47;;;;;;;1.98;1.13;;;18.90;99.90;;;;;;5103411;27;45353;-63
2023/07/28 01:32:14;;;;;;;1.52;0.90;;;18.90;99.90;;;;;;5100891;27;47094;-63
2023/07/28 01:34:41;;;;;;;1.80;0.95;;;18.90;99.90;;;;;;5118968;27;45256;-62
2023/07/28 01:37:08;;;;;;;2.65;1.10;;;18.90;99.90;;;;;;5108796;27;45255;-62
2023/07/28 01:39:35;;;;;;;3.80;1.17;;;18.90;99.90;;;;;;5103738;27;45309;-62
2023/07/28 01:42:02;;;;;;;2.67;1.30;;;18.90;99.90;;;;;;5106022;27;46138;-63
2023/07/28 01:44:30;;;;;;;1.77;1.20;;;18.90;99.90;;;;;;5103732;27;45125;-62
2023/07/28 01:46:57;;;;;;;1.40;1.17;;;18.90;99.90;;;;;;5102541;27;45149;-62
2023/07/28 01:49:23;;;;;;;4.15;1.10;;;18.90;99.90;;;;;;5103999;27;45138;-63
2023/07/28 01:51:50;;;;;;;1.40;1.30;;;18.90;99.90;;;;;;5109419;27;46393;-62
2023/07/28 01:54:17;;;;;;;4.40;1.30;;;18.90;99.90;;;;;;5111625;27;45268;-62
2023/07/28 01:56:44;;;;;;;6.63;1.40;;;18.90;99.90;;;;;;5104025;27;45145;-62
2023/07/28 01:59:10;;;;;;;2.45;0.95;;;18.90;99.90;;;;;;5110556;27;45100;-62
2023/07/28 02:01:38;;;;;;;2.20;1.27;;;18.90;99.90;;;;;;5102933;27;45204;-62
2023/07/28 02:04:05;;;;;;;1.30;1.00;;;18.90;99.90;;;;;;5104436;27;45201;-62
2023/07/28 02:06:32;;;;;;;2.75;1.17;;;18.90;99.90;;;;;;5104965;27;45069;-62
2023/07/28 02:08:59;;;;;;;4.55;1.42;;;18.90;99.90;;;;;;5106423;27;45301;-62
2023/07/28 02:11:26;;;;;;;2.53;1.20;;;18.90;99.90;;;;;;5106828;27;45371;-62
2023/07/28 02:13:53;;;;;;;4.15;1.20;;;18.90;99.90;;;;;;5106021;27;45188;-62
2023/07/28 02:16:20;;;;;;;2.40;1.20;;;18.80;99.90;;;;;;5111871;27;45298;-62
2023/07/28 02:18:48;;;;;;;5.32;1.60;;;18.80;99.90;;;;;;5102664;27;45078;-62
2023/07/28 02:21:15;;;;;;;2.05;1.27;;;18.90;99.90;;;;;;5100129;27;46528;-62
2023/07/28 02:23:42;;;;;;;2.80;1.27;;;18.90;99.90;;;;;;5107665;27;45421;-62
2023/07/28 02:26:09;;;;;;;2.58;1.42;;;18.90;99.90;;;;;;5102983;27;45205;-62
2023/07/28 02:28:35;;;;;;;4.82;1.50;;;18.90;99.90;;;;;;5101041;27;45286;-62
2023/07/28 02:31:02;;;;;;;6.85;1.52;;;18.90;99.90;;;;;;5108513;27;45421;-62
2023/07/28 02:33:31;;;;;;;3.63;1.67;;;18.90;99.90;;;;;;5105139;27;46179;-62
2023/07/28 02:35:59;;;;;;;1.63;1.42;;;18.90;99.90;;;;;;5103011;27;45198;-62
2023/07/28 02:38:26;;;;;;;2.35;1.23;;;18.90;99.90;;;;;;5113968;27;45162;-62
2023/07/28 02:40:53;;;;;;;2.67;1.50;;;18.90;99.90;;;;;;5105514;27;46231;-62
2023/07/28 02:43:19;;;;;;;4.55;1.70;;;18.90;99.90;;;;;;5104253;27;45454;-62
2023/07/28 02:45:49;;;;;;;2.30;1.50;;;18.90;99.90;;;;;;5107745;27;45163;-62
2023/07/28 02:48:16;;;;;;;4.30;1.33;;;18.90;99.90;;;;;;5105691;27;45250;-62
2023/07/28 02:50:47;;;;;;;2.10;1.80;;;18.90;99.90;;;;;;5102812;27;46708;-63
2023/07/28 02:53:15;;;;;;;2.80;1.60;;;18.90;99.90;;;;;;5103008;27;45208;-63
2023/07/28 02:55:42;;;;;;;1.95;1.63;;;18.90;99.90;;;;;;5105016;27;45287;-62
2023/07/28 02:58:09;;;;;;;2.63;1.30;;;19.00;99.90;;;;;;5106931;27;45419;-63
2023/07/28 03:00:38;;;;;;;1.40;1.30;;;18.90;99.90;;;;;;5103586;27;47348;-62
2023/07/28 03:03:05;;;;;;;2.33;1.35;;;18.90;99.90;;;;;;5106539;27;45279;-62
2023/07/28 03:05:32;;;;;;;2.95;1.40;;;18.90;99.90;;;;;;5107138;27;45209;-63
2023/07/28 03:07:59;;;;;;;5.70;1.60;;;18.90;99.90;;;;;;5121325;27;45478;-62
2023/07/28 03:10:28;;;;;;;2.50;1.20;;;19.00;99.90;;;;;;5104737;27;47509;-63
2023/07/28 03:12:56;;;;;;;2.47;1.25;;;18.90;99.90;;;;;;5113690;27;46091;-63
2023/07/28 03:15:23;;;;;;;4.07;1.10;;;18.90;99.90;;;;;;5105266;27;45335;-62
2023/07/28 03:17:50;;;;;;;2.95;1.10;;;18.90;99.90;;;;;;5112317;27;45225;-62
2023/07/28 03:20:17;;;;;;;3.80;1.40;;;18.90;99.90;;;;;;5104234;27;45285;-62
2023/07/28 03:22:44;;;;;;;2.25;1.08;;;18.90;99.90;;;;;;5112123;27;45330;-63
2023/07/28 03:25:12;;;;;;;2.55;1.10;;;18.90;99.90;;;;;;5111129;27;45200;-62
2023/07/28 03:27:40;;;;;;;4.38;1.23;;;18.90;99.90;;;;;;5098651;27;45107;-62
2023/07/28 03:30:10;;;;;;;3.40;1.10;;;18.90;99.90;;;;;;5103707;27;45468;-62
2023/07/28 03:32:37;;;;;;;2.92;1.05;;;18.90;99.90;;;;;;5110556;27;45826;-62
2023/07/28 03:35:05;;;;;;;2.78;0.95;;;18.90;99.90;;;;;;5106082;27;45457;-62
2023/07/28 03:37:32;;;;;;;2.22;1.20;;;18.90;99.90;;;;;;5107024;27;45133;-62
2023/07/28 03:39:58;;;;;;;4.68;1.10;;;18.90;99.90;;;;;;5104590;27;46309;-62
2023/07/28 03:42:25;;;;;;;1.77;1.05;;;18.90;99.90;;;;;;5104385;27;45340;-62
2023/07/28 03:44:54;;;;;;;1.60;0.90;;;18.90;99.90;;;;;;5105513;27;45097;-62
2023/07/28 03:47:20;;;;;;;3.78;1.10;;;18.90;99.90;;;;;;5098147;27;45194;-63
2023/07/28 03:49:47;;;;;;;3.45;0.85;;;18.90;99.90;;;;;;5104980;27;45135;-62
2023/07/28 03:52:14;;;;;;;1.40;0.80;;;19.00;99.90;;;;;;5103447;27;45355;-63
2023/07/28 03:54:40;;;;;;;1.00;0.80;;;18.90;99.90;;;;;;5109080;27;45409;-62
2023/07/28 03:57:09;;;;;;;3.20;1.38;;;18.90;99.90;;;;;;5105042;27;45367;-62
2023/07/28 03:59:36;;;;;;;5.18;0.65;;;18.90;99.90;;;;;;5105636;27;45128;-63
2023/07/28 04:02:05;;;;;;;1.75;0.70;;;18.90;99.90;;;;;;5106376;27;45222;-63
2023/07/28 04:04:31;;;;;;;1.30;0.90;;;19.00;99.90;;;;;;5105034;27;45150;-62
2023/07/28 04:06:58;;;;;;;3.30;0.68;;;18.90;99.90;;;;;;5106796;27;45235;-62
2023/07/28 04:09:25;;;;;;;1.10;0.80;;;18.90;99.90;;;;;;5104183;27;45289;-62
2023/07/28 04:11:52;;;;;;;2.65;0.73;;;18.90;99.90;;;;;;5106666;27;45079;-62
2023/07/28 04:14:19;;;;;;;1.85;0.85;;;18.90;99.90;;;;;;5104656;27;45079;-62
2023/07/28 04:16:45;;;;;;;2.28;0.80;;;19.00;99.90;;;;;;5104841;27;45182;-62
2023/07/28 04:19:14;;;;;;;2.88;0.93;;;18.90;99.90;;;;;;5104831;27;46066;-63
2023/07/28 04:21:40;;;;;;;2.58;0.70;;;18.90;99.90;;;;;;5103731;27;45237;-62
2023/07/28 04:24:07;;;;;;;1.73;0.90;;;19.00;99.90;;;;;;5105602;27;45282;-63
2023/07/28 04:26:35;;;;;;;4.03;1.00;;;18.90;99.90;;;;;;5102150;27;45409;-62
2023/07/28 04:29:02;;;;;;;1.55;0.80;;;19.00;99.90;;;;;;5109703;27;45276;-63
2023/07/28 04:31:29;;;;;;;2.67;0.88;;;18.90;99.90;;;;;;5105982;27;45229;-63
2023/07/28 04:33:56;;;;;;;3.47;0.90;;;18.90;99.90;;;;;;5104177;27;45055;-62
2023/07/28 04:36:24;;;;;;;2.33;0.90;;;19.00;99.90;;;;;;5106851;27;45319;-62
2023/07/28 04:38:51;;;;;;;0.88;0.88;;;19.00;99.90;;;;;;5103959;27;46042;-62
2023/07/28 04:41:17;;;;;;;1.40;0.73;;;19.00;99.90;;;;;;5104774;27;45173;-62
2023/07/28 04:43:44;;;;;;;2.60;0.90;;;19.00;99.90;;;;;;5097770;27;45362;-62
2023/07/28 04:46:11;;;;;;;1.77;0.60;;;19.00;99.90;;;;;;5104869;27;45181;-62
2023/07/28 04:48:38;;;;;;;1.10;0.80;;;19.00;99.90;;;;;;5117795;27;45258;-62
2023/07/28 04:51:04;;;;;;;2.47;0.50;;;19.00;99.90;;;;;;5107549;27;45215;-63
2023/07/28 04:53:32;;;;;;;1.48;0.63;;;19.00;99.90;;;;;;5112439;27;45293;-62
2023/07/28 04:55:59;;;;;;;2.33;0.82;;;19.00;99.90;;;;;;5108068;27;45133;-63
2023/07/28 04:58:26;;;;;;;1.90;0.88;;;19.00;99.90;;;;;;5103907;27;46674;-62
2023/07/28 05:00:53;;;;;;;1.80;0.80;;;19.10;99.90;;;;;;5102458;27;45129;-62
2023/07/28 05:03:20;;;;;;;4.43;1.00;;;19.10;99.90;;;;;;5111265;27;45375;-63
2023/07/28 05:05:47;;;;;;;2.70;0.98;;;19.10;99.90;;;;;;5111619;27;45232;-62
2023/07/28 05:08:13;;;;;;;3.10;0.93;;;19.10;99.90;;;;;;5102243;27;45412;-62
2023/07/28 05:10:42;;;;;;;1.33;0.88;;;19.10;99.90;;;;;;5106803;27;45305;-62
2023/07/28 05:13:09;;;;;;;1.30;0.90;;;19.10;99.90;;;;;;5101166;27;45322;-63
2023/07/28 05:15:36;;;;;;;1.75;0.90;;;19.10;99.90;;;;;;5106814;27;45213;-62
2023/07/28 05:18:03;;;;;;;1.83;0.68;;;19.10;99.90;;;;;;5103363;27;47985;-62
2023/07/28 05:20:29;;;;;;;1.17;0.93;;;19.10;99.90;;;;;;5103165;27;45196;-62
2023/07/28 05:22:56;;;;;;;8.40;1.42;;;19.10;99.90;;;;;;5103429;27;45447;-62
2023/07/28 05:25:23;;;;;;;0.98;0.85;;;19.10;99.90;;;;;;5104579;27;45422;-62
2023/07/28 05:27:51;;;;;;;2.05;0.93;;;19.20;99.90;;;;;;5102446;27;45429;-62
2023/07/28 05:30:18;;;;;;;1.92;0.75;;;19.10;99.90;;;;;;5102063;27;45171;-62
2023/07/28 05:32:46;;;;;;;1.25;0.95;;;19.00;99.90;;;;;;5102003;27;45203;-62
2023/07/28 05:35:12;;;;;;;1.17;0.90;;;18.90;99.90;;;;;;5104528;27;45517;-62
2023/07/28 05:37:39;;;;;;;2.00;0.80;;;19.00;99.90;;;;;;5112421;27;46224;-62
2023/07/28 05:40:07;;;;;;;2.63;0.80;;;18.90;99.90;;;;;;5104824;27;45173;-62
2023/07/28 05:42:34;;;;;;;2.35;0.90;;;18.90;99.90;;;;;;5103832;27;45176;-62
2023/07/28 05:45:03;;;;;;;3.05;0.85;;;18.90;99.90;;;;;;5109485;27;45358;-62
2023/07/28 05:47:29;;;;;;;1.23;0.73;;;19.00;99.90;;;;;;5102424;27;46639;-62
2023/07/28 05:49:56;;;;;;;3.08;0.90;;;19.10;99.90;;;;;;5102516;27;45169;-63
2023/07/28 05:52:23;;;;;;;2.88;1.33;;;19.20;99.90;;;;;;5102296;27;45209;-62
2023/07/28 05:54:50;;;;;;;1.35;0.93;;;19.10;99.90;;;;;;5103804;27;45228;-62
2023/07/28 05:57:17;;;;;;;1.05;0.95;;;19.20;99.90;;;;;;5111083;27;47126;-62
2023/07/28 05:59:43;;;;;;;3.28;1.10;;;19.20;99.90;;;;;;5103159;27;45163;-62
2023/07/28 06:02:12;;;;;;;1.42;1.10;;;19.10;99.90;;;;;;5103430;27;45374;-62
2023/07/28 06:04:38;;;;;;;1.42;0.85;;;19.10;99.90;;;;;;5105272;27;45260;-62
2023/07/28 06:07:06;;;;;;;2.67;1.20;;;19.10;99.90;;;;;;5107961;27;46587;-62
2023/07/28 06:09:33;;;;;;;1.17;1.05;;;19.00;99.90;;;;;;5110490;27;45470;-63
2023/07/28 06:11:59;;;;;;;3.30;1.05;;;18.90;99.90;;;;;;5108132;27;45244;-61
2023/07/28 06:14:26;;;;;;;4.55;1.23;;;18.90;99.90;;;;;;5113622;27;45365;-62
2023/07/28 06:16:53;;;;;;;2.15;1.10;;;18.90;99.90;;;;;;5119948;27;45301;-62
2023/07/28 06:19:23;;;;;;;1.95;1.17;;;18.90;99.90;;;;;;5110435;27;45132;-62
2023/07/28 06:21:50;;;;;;;1.40;1.00;;;18.90;99.90;;;;;;5119969;27;45194;-62
2023/07/28 06:24:17;;;;;;;3.05;1.35;;;18.90;99.90;;;;;;5101711;27;45442;-62
2023/07/28 06:26:44;;;;;;;2.40;1.20;;;18.90;99.90;;;;;;5117905;27;45320;-62
2023/07/28 06:29:11;;;;;;;3.45;1.80;;;18.90;99.90;;;;;;5109225;27;45267;-62
2023/07/28 06:31:37;;;;;;;2.65;1.20;;;19.00;99.90;;;;;;5104824;27;45316;-62
2023/07/28 06:34:04;;;;;;;3.40;1.30;;;18.90;99.90;;;;;;5114365;27;45240;-62
2023/07/28 06:36:32;;;;;;;4.40;1.33;;;19.00;99.90;;;;;;5109212;27;45308;-62
2023/07/28 06:38:59;;;;;;;2.17;1.20;;;19.10;99.90;;;;;;5111053;27;45644;-62
2023/07/28 06:41:27;;;;;;;4.43;1.40;;;19.20;99.90;;;;;;5112585;27;45118;-62
2023/07/28 06:43:53;;;;;;;2.88;1.00;;;19.30;99.90;;;;;;5121970;27;45315;-62
2023/07/28 06:46:20;;;;;;;2.10;1.10;;;19.30;99.90;;;;;;5121417;27;46352;-62
2023/07/28 06:48:47;;;;;;;1.77;1.20;;;19.30;99.90;;;;;;5117692;27;45154;-62
2023/07/28 06:51:14;;;;;;;4.13;1.50;;;19.30;99.90;;;;;;5120560;27;45202;-62
2023/07/28 06:53:42;;;;;;;1.95;1.30;;;19.30;99.90;;;;;;5123782;27;45287;-62
2023/07/28 06:56:09;;;;;;;2.95;1.35;;;19.30;99.90;;;;;;5121738;27;47102;-62
2023/07/28 06:58:36;;;;;;;2.33;1.30;;;19.30;99.90;;;;;;5118148;27;45626;-62
2023/07/28 07:01:02;;;;;;;4.25;2.17;;;19.30;99.90;;;;;;5111708;27;45480;-62
2023/07/28 07:03:29;;;;;;;2.67;1.70;;;19.30;99.90;;;;;;5095740;27;45178;-62
2023/07/28 07:05:56;;;;;;;3.78;1.63;;;19.30;99.90;;;;;;5098886;27;45280;-62
2023/07/28 07:08:23;;;;;;;6.43;2.13;;;19.30;99.90;;;;;;5099349;27;45120;-62
2023/07/28 07:10:51;;;;;;;2.63;1.80;;;19.30;99.90;;;;;;5087256;27;45283;-62
2023/07/28 07:13:18;;;;;;;4.90;2.00;;;19.30;99.90;;;;;;5101462;27;45302;-62
2023/07/28 07:15:45;;;;;;;2.33;2.10;;;19.30;99.90;;;;;;5095075;27;45442;-62
2023/07/28 07:18:13;;;;;;;5.03;2.25;;;19.40;99.90;;;;;;5101405;27;45501;-61
2023/07/28 07:20:39;;;;;;;4.85;2.03;;;19.40;99.90;;;;;;5093221;27;45173;-62
2023/07/28 07:23:06;;;;;;;6.75;2.13;;;19.40;99.90;;;;;;5093487;27;45426;-62
2023/07/28 07:25:33;;;;;;;4.38;2.05;;;19.50;99.90;;;;;;5096888;27;45244;-62
2023/07/28 07:28:02;;;;;;;3.65;2.00;;;19.40;99.90;;;;;;5096626;27;45263;-62
2023/07/28 07:30:29;;;;;;;4.80;2.17;;;19.50;99.90;;;;;;5101943;27;45377;-61
2023/07/28 07:32:55;;;;;;;3.65;2.10;;;19.40;99.90;;;;;;5097123;27;45177;-62
2023/07/28 07:35:22;;;;;;;9.35;2.35;;;19.50;99.90;;;;;;5092749;27;46259;-62
2023/07/28 07:37:49;;;;;;;5.63;2.03;;;19.50;99.90;;;;;;5101660;27;45105;-62
2023/07/28 07:40:16;;;;;;;3.72;2.08;;;19.50;99.90;;;;;;5092545;27;45360;-62
2023/07/28 07:42:44;;;;;;;5.40;2.30;;;19.50;99.90;;;;;;5097390;27;45562;-62
2023/07/28 07:45:13;;;;;;;3.22;2.40;;;19.50;99.90;;;;;;5091483;27;46251;-62
2023/07/28 07:47:40;;;;;;;3.63;2.22;;;19.50;99.90;;;;;;5096542;27;45221;-61
2023/07/28 07:50:09;;;;;;;5.40;2.60;;;19.50;99.90;;;;;;5092701;27;45164;-62
2023/07/28 07:52:36;;;;;;;6.03;2.90;;;19.50;99.90;;;;;;5102362;27;45440;-62
2023/07/28 07:55:03;;;;;;;6.60;2.40;;;19.50;99.90;;;;;;5101204;27;48619;-62
2023/07/28 07:57:30;;;;;;;4.88;2.25;;;19.60;99.90;;;;;;5087353;27;45286;-61
2023/07/28 07:59:59;;;;;;;3.95;2.47;;;19.60;99.90;;;;;;5102298;27;45134;-63
2023/07/28 08:02:27;;;;;;;4.55;2.30;;;19.60;99.90;;;;;;5116897;27;45125;-62
2023/07/28 08:04:54;;;;;;;3.63;2.00;;;19.60;99.90;;;;;;5121273;27;45357;-62
2023/07/28 08:07:21;;;;;;;5.90;2.03;;;19.60;99.90;;;;;;5114203;27;45179;-62
2023/07/28 08:09:47;;;;;;;4.70;2.20;;;19.60;99.90;;;;;;5110851;27;45344;-62
2023/07/28 08:12:16;;;;;;;3.10;1.77;;;19.60;99.90;;;;;;5101568;27;45310;-62
2023/07/28 08:14:43;;;;;;;10.52;2.10;;;19.60;99.90;;;;;;5114785;27;47433;-61
2023/07/28 08:17:10;;;;;;;2.50;1.83;;;19.60;99.90;;;;;;5120715;27;45130;-62
2023/07/28 08:19:38;;;;;;;2.28;1.98;;;19.60;99.90;;;;;;5114552;27;45188;-62
2023/07/28 08:22:05;;;;;;;6.45;2.00;;;19.60;99.90;;;;;;5105750;27;45440;-62
2023/07/28 08:24:32;;;;;;;3.63;2.03;;;19.70;99.90;;;;;;5109014;27;47977;-62
2023/07/28 08:26:59;;;;;;;8.07;2.00;;;19.80;99.90;;;;;;5111802;27;45265;-63
2023/07/28 08:29:26;;;;;;;4.15;1.67;;;19.80;99.90;;;;;;5112490;27;45541;-62
2023/07/28 08:31:53;;;;;;;2.78;1.90;;;19.80;99.90;;;;;;5116613;27;45225;-62
2023/07/28 08:34:20;;;;;;;4.00;1.63;;;19.80;99.90;;;;;;5118467;27;46342;-62
2023/07/28 08:36:48;;;;;;;1.90;1.80;;;19.90;99.90;;;;;;5116401;27;45143;-62
2023/07/28 08:39:15;;;;;;;2.38;1.70;;;19.90;99.90;;;;;;5096220;27;45299;-62
2023/07/28 08:41:42;;;;;;;4.72;1.75;;;19.90;99.90;;;;;;5099300;27;45405;-62
2023/07/28 08:44:09;;;;;;;3.30;1.58;;;19.90;99.90;;;;;;5117757;27;46555;-62
2023/07/28 08:46:37;;;;;;;3.67;1.73;;;19.90;99.90;;;;;;5097365;27;45240;-62
2023/07/28 08:49:04;;;;;;;2.53;1.55;;;20.00;99.90;;;;;;5101292;27;45273;-61
2023/07/28 08:51:30;;;;;;;3.22;1.70;;;20.00;99.90;;;;;;5108865;27;45087;-62
2023/07/28 08:53:58;;;;;;;4.13;1.63;;;20.00;99.90;;;;;;5115080;27;46587;-62
2023/07/28 08:56:26;;;;;;;2.40;1.48;;;20.10;99.90;;;;;;5118042;27;45226;-62
2023/07/28 08:58:59;;;;;;;2.88;1.50;;;20.20;99.90;;;;;;5110488;27;45212;-62
2023/07/28 09:01:26;;;;;;;5.70;1.80;;;20.30;99.90;;;;;;5114772;27;45688;-62
2023/07/28 09:03:53;;;;;;;2.70;1.73;;;20.20;99.90;;;;;;5112201;27;45340;-62
2023/07/28 09:06:30;;;;;;;2.25;1.80;;;20.20;99.90;;;;;;5106069;27;45263;-62
2023/07/28 09:08:59;;;;;;;3.70;1.50;;;20.30;99.90;;;;;;5103898;27;45482;-61
2023/07/28 09:11:27;;;;;;;1.80;1.30;;;20.30;99.90;;;;;;5110311;27;45382;-62
2023/07/28 09:13:56;;;;;;;4.50;1.60;;;20.30;99.90;;;;;;5114308;27;46329;-62
2023/07/28 09:16:24;;;;;;;3.65;1.42;;;20.30;99.90;;;;;;5117953;27;45544;-61
2023/07/28 09:18:51;;;;;;;1.88;1.48;;;20.40;99.90;;;;;;5113553;27;45255;-62
2023/07/28 09:21:20;;;;;;;2.85;1.80;;;20.40;99.90;;;;;;5109727;27;45117;-62
2023/07/28 09:23:47;;;;;;;2.30;1.52;;;20.40;99.90;;;;;;5120412;27;48175;-62
2023/07/28 09:26:17;;;;;;;3.00;1.40;;;20.40;99.90;;;;;;5117593;27;45354;-62
2023/07/28 09:28:44;;;;;;;3.55;1.45;;;20.40;99.90;;;;;;5120354;27;45247;-62
2023/07/28 09:31:11;;;;;;;2.35;1.40;;;20.50;99.90;;;;;;5111835;27;45251;-62
2023/07/28 09:33:42;;;;;;;2.50;1.58;;;20.60;99.90;;;;;;5120818;27;46929;-62
2023/07/28 09:36:10;;;;;;;2.72;1.38;;;20.60;99.90;;;;;;5116571;27;45254;-62
2023/07/28 09:38:40;;;;;;;2.63;1.20;;;20.70;99.90;;;;;;5113005;27;45237;-62
2023/07/28 09:41:10;;;;;;;3.25;1.38;;;20.70;99.90;;;;;;5100044;27;45337;-62
2023/07/28 09:43:39;;;;;;;3.75;1.58;;;20.70;99.90;;;;;;5119131;27;46323;-62
2023/07/28 09:46:07;;;;;;;3.38;1.70;;;20.70;99.90;;;;;;5110255;27;45281;-62
2023/07/28 09:48:34;;;;;;;2.20;1.38;;;20.80;99.90;;;;;;5109212;27;45467;-63
2023/07/28 09:51:06;;;;;;;4.18;1.80;;;20.80;99.90;;;;;;5107961;27;45292;-62
2023/07/28 09:53:36;;;;;;;2.75;1.45;;;20.90;99.90;;;;;;5090546;27;46059;-62
2023/07/28 09:56:04;;;;;;;1.50;1.40;;;20.90;99.90;;;;;;5092668;27;45260;-62
2023/07/28 09:58:38;;;;;;;2.75;1.30;;;21.00;99.90;;;;;;5103382;27;45165;-62
2023/07/28 10:01:06;;;;;;;1.20;1.10;;;21.00;99.90;;;;;;5099117;27;45290;-62
2023/07/28 10:03:33;;;;;;;2.55;1.20;;;21.00;99.90;;;;;;5095029;27;47979;-62
2023/07/28 10:06:01;;;;;;;2.67;1.00;;;21.00;99.90;;;;;;5098386;27;45310;-62
2023/07/28 10:08:28;;;;;;;4.03;0.90;;;21.10;99.90;;;;;;5111389;27;45145;-62
2023/07/28 10:10:56;;;;;;;1.88;1.10;;;21.00;99.90;;;;;;5114060;27;45326;-62
2023/07/28 10:13:23;;;;;;;1.42;1.17;;;21.00;99.90;;;;;;5112014;27;46586;-61
2023/07/28 10:15:51;;;;;;;2.33;1.17;;;21.00;99.90;;;;;;5120289;27;45170;-62
2023/07/28 10:18:22;;;;;;;2.53;1.00;;;21.10;99.90;;;;;;5112593;27;45287;-62
2023/07/28 10:20:49;;;;;;;0.75;0.70;;;21.10;99.90;;;;;;5113709;27;45369;-62
2023/07/28 10:23:17;;;;;;;1.38;0.90;;;21.10;99.90;;;;;;5111508;27;48762;-62
2023/07/28 10:25:46;;;;;;;2.75;1.00;;;21.10;99.90;;;;;;5120741;27;45216;-61
2023/07/28 10:28:31;;;;;;;1.85;1.08;;;21.10;99.90;;;;;;5113232;27;45215;-62
2023/07/28 10:30:59;;;;;;;2.55;0.75;;;21.10;99.90;;;;;;5103992;27;45404;-62
2023/07/28 10:33:33;;;;;;;2.08;0.80;;;21.00;99.90;;;;;;5118184;27;47985;-62
2023/07/28 10:36:00;;;;;;;1.20;0.82;;;21.10;99.90;;;;;;5120035;27;45310;-62
2023/07/28 10:38:31;;;;;;;2.00;0.80;;;21.10;99.90;;;;;;5114999;27;45261;-62
2023/07/28 10:41:09;;;;;;;1.63;1.10;;;21.10;99.90;;;;;;5108913;27;45268;-62
2023/07/28 10:43:37;;;;;;;2.22;1.00;;;21.10;99.90;;;;;;5100415;27;48440;-62
2023/07/28 10:46:05;;;;;;;1.98;0.90;;;21.20;99.90;;;;;;5114889;27;45358;-62
2023/07/28 10:48:35;;;;;;;2.88;0.70;;;21.20;99.90;;;;;;5118432;27;45231;-63
2023/07/28 10:51:02;;;;;;;2.67;0.98;;;21.20;99.90;;;;;;5118201;27;45478;-63
2023/07/28 10:53:29;;;;;;;4.32;1.00;;;21.30;99.90;;;;;;5119262;27;46377;-62
2023/07/28 10:55:56;;;;;;;0.77;0.77;;;21.30;99.90;;;;;;5113295;27;45166;-62
2023/07/28 10:58:23;;;;;;;1.10;0.85;;;21.30;99.90;;;;;;5116853;27;45326;-62
2023/07/28 11:00:51;;;;;;;2.85;1.10;;;21.40;99.90;;;;;;5118919;27;45499;-62
2023/07/28 11:03:19;;;;;;;0.93;0.90;;;21.30;99.90;;;;;;5114802;27;47496;-62
2023/07/28 11:05:50;;;;;;;1.60;1.20;;;21.40;99.90;;;;;;5115519;27;45159;-62
2023/07/28 11:08:17;;;;;;;1.55;1.10;;;21.40;99.90;;;;;;5115253;27;45217;-62
2023/07/28 11:10:44;;;;;;;1.10;1.00;;;21.40;99.90;;;;;;5110572;27;45492;-62
2023/07/28 11:13:11;;;;;;;1.88;1.02;;;21.50;99.90;;;;;;5112447;27;46377;-62
2023/07/28 11:15:38;;;;;;;3.80;1.05;;;21.50;99.90;;;;;;5114511;27;45323;-62
2023/07/28 11:18:06;;;;;;;1.20;1.10;;;21.50;99.90;;;;;;5112509;27;45167;-61
2023/07/28 11:20:34;;;;;;;1.25;0.80;;;21.50;99.90;;;;;;5093661;27;45489;-62
2023/07/28 11:23:04;;;;;;;1.05;0.95;;;21.50;99.90;;;;;;5100663;27;45408;-62
2023/07/28 11:25:32;;;;;;;1.58;1.10;;;21.60;99.90;;;;;;5114898;27;45291;-63
2023/07/28 11:28:02;;;;;;;1.40;1.10;;;21.60;99.90;;;;;;5106723;27;45232;-62
2023/07/28 11:30:29;;;;;;;3.40;0.90;;;21.70;99.90;;;;;;5115354;27;45360;-63
2023/07/28 11:32:56;;;;;;;2.20;0.90;;;21.80;99.90;;;;;;5109455;27;46554;-62
2023/07/28 11:35:23;;;;;;;1.30;0.95;;;21.80;99.90;;;;;;5110373;27;45312;-62
2023/07/28 11:37:52;;;;;;;0.88;0.70;;;21.90;99.90;;;;;;5118849;27;45113;-62
2023/07/28 11:40:22;;;;;;;1.02;0.90;;;21.80;99.90;;;;;;5107263;27;45292;-62
2023/07/28 11:42:52;;;;;;;2.20;0.80;;;21.80;99.90;;;;;;5103948;27;47119;-62
2023/07/28 11:45:20;;;;;;;0.60;0.60;;;21.90;99.90;;;;;;5116910;27;45174;-62
2023/07/28 11:47:57;;;;;;;3.83;0.70;;;21.90;99.90;;;;;;5119178;27;45297;-62
2023/07/28 11:50:24;;;;;;;0.98;0.65;;;21.90;99.90;;;;;;5120529;27;45301;-61
2023/07/28 11:52:51;;;;;;;3.25;0.73;;;21.80;99.90;;;;;;5115985;27;47549;-62
2023/07/28 11:55:19;;;;;;;0.70;0.70;;;21.80;99.90;;;;;;5112344;27;45260;-62
2023/07/28 11:57:47;;;;;;;1.80;0.85;;;21.80;99.90;;;;;;5110572;27;45246;-63
2023/07/28 12:00:16;;;;;;;1.30;0.60;;;21.80;99.90;;;;;;5096430;27;45231;-62
2023/07/28 12:02:44;;;;;;;0.43;0.43;;;21.80;99.90;;;;;;5108861;27;47610;-62
2023/07/28 12:05:13;;;;;;;0.70;0.70;;;21.80;99.90;;;;;;5103173;27;45127;-62
2023/07/28 12:07:41;;;;;;;1.52;0.80;;;21.70;99.90;;;;;;5102885;27;45214;-62
2023/07/28 12:10:09;;;;;;;1.55;0.80;;;21.70;99.90;;;;;;5116019;27;45187;-62
2023/07/28 12:12:41;;;;;;;0.88;0.77;;;21.70;99.90;;;;;;5106358;27;47443;-62
2023/07/28 12:15:21;;;;;;;1.85;0.82;;;21.70;99.90;;;;;;5110751;27;45213;-62
2023/07/28 12:18:10;;;;;;;0.60;0.52;;;21.70;99.90;;;;;;5105067;27;45238;-62
2023/07/28 12:20:38;;;;;;;1.15;0.77;;;21.70;99.90;;;;;;5097073;27;45379;-62
2023/07/28 12:23:06;;;;;;;2.28;1.40;;;21.70;99.90;;;;;;5104324;27;47442;-62
2023/07/28 12:25:33;;;;;;;0.57;0.50;;;21.70;99.90;;;;;;5120985;27;45308;-62
2023/07/28 12:28:00;;;;;;;2.45;0.55;;;21.60;99.90;;;;;;5117651;27;45070;-62
2023/07/28 12:30:29;;;;;;;0.73;0.70;;;21.60;99.90;;;;;;5104243;27;45133;-62
2023/07/28 12:32:56;;;;;;;0.43;0.43;;;21.60;99.90;;;;;;5102559;27;45275;-62
2023/07/28 12:35:24;;;;;;;0.82;0.50;;;21.60;99.90;;;;;;5093942;27;45316;-62
2023/07/28 12:37:51;;;;;;;0.60;0.60;;;21.60;99.90;;;;;;5098544;27;45156;-62
2023/07/28 12:40:19;;;;;;;1.80;0.60;;;21.70;99.90;;;;;;5095939;27;45262;-62
2023/07/28 12:42:47;;;;;;;1.63;1.13;;;21.70;99.90;;;;;;5094760;27;47630;-62
2023/07/28 12:45:14;;;;;;;2.45;0.82;;;21.60;99.90;;;;;;5103200;27;45124;-63
2023/07/28 12:47:43;;;;;;;0.90;0.90;;;21.60;99.90;;;;;;5103824;27;45381;-62
2023/07/28 12:50:10;;;;;;;5.72;1.13;;;21.60;99.90;;;;;;5099060;27;45544;-62